Página principal
METAR-TAF:

METAR-TAF

Aeroportos :

Bruxelas, Bélgica

Aeroporto de Bruxelas. Zaventem

latitude: 50-54N, longitude: 004-32E, altura: 55 m

Observação actual do tempo

O boletim foi feito há 41 minutos, às 12:50 UTC
Vento 7 kt de nordeste, variando entre nor-nordeste e este
Temperatura 3°C
Humidade 60%
Pressão 1025 hPa
Visibilidade: 8000 m

METAR: EBBR 211250Z 05007KT 020V080 8000 NSC 03/M04 Q1025 NOSIG

Hora: 14:31 (13:31 UTC)

Previsão

O boletim foi feito há 26 horas e 21 minutos, às 11:10 UTC
Previsão válida de 20 às 12 UTC a 21 às 18 UTC
Vento 4 kt de nor-nordeste
Visibilidade 10 km ou mais
Poucas nuvensa uma altura de 2000 ft

TAF: EBBR 201110Z 2012/2118 03004KT 9999 FEW020

Observações e previsões do tempo de mais de 4000 aeroportos (mensagens METAR e TAF).

As estações disponíveis são os pontos amarelos e vermelhos sobre o mapa.

Mova o rato sobre o mapa para ver o nome da estação.

Depois clique no ponto para visualizar as observações e previsões meteorológicas.

Para alterar o mapa : clique nos botões verdes com uma cruz preta para aumentar o zoom; no botão verde com uma pitada de zoom; ou nas setas verdes para mapas adjacentes.


METAR-TAF: